Time;durP1;ratioP1;P1;durP2;ratioP2;P2;SDS_P1;SDS_P2;PMS_P1;PMS_P2;Temp;Humidity;BMP_temperature;BMP_pressure;BME280_temperature;BME280_humidity;BME280_pressure;Samples;Min_cycle;Max_cycle;Signal;HPM_P1;HPM_P2
2023/08/21 00:01:18;;;;;;;3.60;1.30;;;20.80;94.50;;;;;;5073038;28;20036;-79
2023/08/21 00:03:44;;;;;;;4.95;1.33;;;20.80;94.70;;;;;;5073650;28;20044;-79
2023/08/21 00:06:10;;;;;;;2.60;1.10;;;20.70;94.70;;;;;;5072887;28;20044;-79
2023/08/21 00:08:36;;;;;;;6.10;1.45;;;20.60;94.80;;;;;;5073222;28;20048;-79
2023/08/21 00:11:02;;;;;;;4.15;1.33;;;20.50;94.80;;;;;;5072955;28;20048;-79
2023/08/21 00:13:27;;;;;;;3.78;1.20;;;20.50;94.90;;;;;;5073131;28;20052;-79
2023/08/21 00:15:55;;;;;;;3.00;1.20;;;20.40;95.00;;;;;;5072990;28;20040;-80
2023/08/21 00:18:20;;;;;;;3.40;1.30;;;20.30;95.00;;;;;;5073640;28;20119;-80
2023/08/21 00:20:46;;;;;;;3.95;1.38;;;20.30;95.10;;;;;;5072791;28;20589;-79
2023/08/21 00:23:12;;;;;;;2.95;1.10;;;20.20;95.00;;;;;;5073020;28;20127;-79
2023/08/21 00:25:37;;;;;;;3.92;1.30;;;20.20;95.10;;;;;;5072518;28;20591;-79
2023/08/21 00:28:03;;;;;;;4.20;1.38;;;20.10;95.20;;;;;;5072683;28;20048;-79
2023/08/21 00:30:29;;;;;;;4.85;1.30;;;20.10;95.20;;;;;;5072578;28;20032;-80
2023/08/21 00:32:55;;;;;;;3.53;1.15;;;20.00;95.30;;;;;;5072292;28;20028;-79
2023/08/21 00:35:20;;;;;;;3.70;1.27;;;20.00;95.30;;;;;;5070781;28;20048;-80
2023/08/21 00:37:46;;;;;;;3.13;1.10;;;19.90;95.40;;;;;;5072833;28;20557;-78
2023/08/21 00:40:12;;;;;;;3.40;1.10;;;19.80;95.40;;;;;;5072530;28;20054;-80
2023/08/21 00:42:38;;;;;;;3.00;1.05;;;19.80;95.40;;;;;;5073102;28;20040;-80
2023/08/21 00:45:04;;;;;;;3.95;1.30;;;19.80;95.40;;;;;;5072346;28;20054;-79
2023/08/21 00:47:30;;;;;;;3.70;1.02;;;19.70;95.50;;;;;;5072653;28;20124;-79
2023/08/21 00:49:56;;;;;;;3.03;1.00;;;19.70;95.60;;;;;;5073080;28;20116;-80
2023/08/21 00:52:22;;;;;;;2.40;0.82;;;19.60;95.60;;;;;;5072799;28;20079;-79
2023/08/21 00:54:49;;;;;;;4.10;1.33;;;19.60;95.60;;;;;;5072478;28;20550;-79
2023/08/21 00:57:15;;;;;;;4.07;1.02;;;19.60;95.70;;;;;;5072383;28;20080;-80
2023/08/21 00:59:44;;;;;;;2.83;1.10;;;19.60;95.70;;;;;;5072324;28;20143;-79
2023/08/21 01:02:10;;;;;;;2.30;0.77;;;19.50;95.70;;;;;;5072487;28;20475;-79
2023/08/21 01:04:40;;;;;;;3.95;1.10;;;19.50;95.80;;;;;;5072637;28;20068;-79
2023/08/21 01:07:09;;;;;;;4.13;1.00;;;19.40;95.80;;;;;;5065485;28;20047;-79
2023/08/21 01:10:03;;;;;;;2.42;0.90;;;19.40;96.20;;;;;;5072528;28;20048;-79
2023/08/21 01:12:56;;;;;;;2.55;1.10;;;19.30;95.40;;;;;;5073035;28;20047;-79
2023/08/21 01:15:23;;;;;;;2.53;0.90;;;19.30;95.60;;;;;;5072511;28;20040;-80
2023/08/21 01:17:49;;;;;;;2.63;0.90;;;19.20;95.90;;;;;;5053899;28;20044;-79
2023/08/21 01:20:16;;;;;;;2.95;1.10;;;19.20;96.00;;;;;;5072270;28;20056;-79
2023/08/21 01:22:45;;;;;;;2.67;1.10;;;19.10;96.00;;;;;;5072241;28;20044;-79
2023/08/21 01:25:12;;;;;;;3.30;1.00;;;19.10;96.00;;;;;;5072657;28;20131;-79
2023/08/21 01:27:43;;;;;;;2.95;1.00;;;19.10;96.10;;;;;;5071146;28;20037;-79
2023/08/21 01:30:09;;;;;;;2.55;1.00;;;19.10;96.10;;;;;;5071663;28;20396;-79
2023/08/21 01:33:00;;;;;;;2.13;0.90;;;19.00;96.10;;;;;;5072446;28;20045;-79
2023/08/21 01:35:27;;;;;;;3.95;1.00;;;18.90;96.10;;;;;;5091754;28;20071;-79
2023/08/21 01:37:53;;;;;;;2.45;0.80;;;18.90;96.20;;;;;;5072220;28;20052;-79
2023/08/21 01:40:23;;;;;;;2.22;0.90;;;18.80;96.20;;;;;;5072074;28;20048;-79
2023/08/21 01:42:49;;;;;;;2.30;0.95;;;18.80;96.20;;;;;;5072809;28;20399;-80
2023/08/21 01:45:15;;;;;;;4.07;0.80;;;18.70;96.30;;;;;;5071030;28;20052;-79
2023/08/21 01:47:40;;;;;;;3.35;0.90;;;18.70;96.30;;;;;;5072158;28;20501;-79
2023/08/21 01:50:06;;;;;;;3.15;0.82;;;18.70;96.30;;;;;;5072315;28;20049;-79
2023/08/21 01:52:32;;;;;;;2.00;0.90;;;18.60;96.20;;;;;;5072291;28;20170;-79
2023/08/21 01:54:58;;;;;;;1.52;0.70;;;18.60;96.40;;;;;;5073929;28;20123;-79
2023/08/21 01:57:24;;;;;;;2.10;0.88;;;18.60;96.30;;;;;;5075888;28;20045;-79
2023/08/21 01:59:49;;;;;;;1.23;0.60;;;18.50;96.40;;;;;;5075498;28;20051;-79
2023/08/21 02:02:15;;;;;;;3.55;0.88;;;18.50;96.30;;;;;;5075512;28;20441;-79
2023/08/21 02:04:40;;;;;;;3.28;0.85;;;18.50;96.30;;;;;;5074849;28;20063;-79
2023/08/21 02:07:07;;;;;;;2.17;0.80;;;18.40;96.20;;;;;;5075566;28;20072;-79
2023/08/21 02:09:33;;;;;;;2.03;0.73;;;18.40;96.30;;;;;;5075513;28;20040;-79
2023/08/21 02:11:58;;;;;;;2.33;0.95;;;18.40;96.40;;;;;;5075315;28;20537;-79
2023/08/21 02:14:28;;;;;;;1.73;0.70;;;18.40;96.40;;;;;;5075894;28;20086;-80
2023/08/21 02:16:53;;;;;;;3.50;1.17;;;18.30;96.30;;;;;;5073903;28;20517;-80
2023/08/21 02:19:19;;;;;;;3.83;0.80;;;18.30;96.40;;;;;;5074230;28;20040;-80
2023/08/21 02:21:45;;;;;;;2.53;0.88;;;18.30;96.40;;;;;;5075094;28;20123;-80
2023/08/21 02:24:10;;;;;;;1.85;0.80;;;18.20;96.40;;;;;;5075403;28;20517;-79
2023/08/21 02:26:36;;;;;;;1.60;0.75;;;18.20;96.40;;;;;;5075250;28;20033;-79
2023/08/21 02:29:03;;;;;;;2.22;0.93;;;18.20;96.40;;;;;;5075433;28;20479;-79
2023/08/21 02:31:29;;;;;;;2.40;0.80;;;18.10;96.40;;;;;;5074957;28;20494;-79
2023/08/21 02:33:54;;;;;;;2.00;0.88;;;18.10;96.30;;;;;;5075032;28;20055;-79
2023/08/21 02:36:20;;;;;;;1.75;0.98;;;18.00;96.30;;;;;;5074991;28;20133;-79
2023/08/21 02:38:46;;;;;;;1.55;0.70;;;17.90;96.30;;;;;;5074437;28;20166;-79
2023/08/21 02:41:11;;;;;;;1.88;0.80;;;17.90;96.40;;;;;;5074922;28;20067;-79
2023/08/21 02:43:37;;;;;;;2.75;0.73;;;17.90;96.30;;;;;;5075091;28;20067;-79
2023/08/21 02:46:02;;;;;;;1.83;0.80;;;17.80;96.20;;;;;;5073215;28;20049;-79
2023/08/21 02:48:28;;;;;;;1.67;0.80;;;17.70;95.90;;;;;;5074665;28;20094;-79
2023/08/21 02:50:54;;;;;;;2.13;0.80;;;17.70;95.80;;;;;;5074973;28;20089;-79
2023/08/21 02:53:20;;;;;;;1.48;0.75;;;17.60;95.70;;;;;;5074723;28;20032;-79
2023/08/21 02:55:45;;;;;;;2.28;0.80;;;17.60;95.70;;;;;;5073076;28;20044;-77
2023/08/21 02:58:11;;;;;;;1.85;0.85;;;17.50;96.00;;;;;;5074333;28;20090;-79
2023/08/21 03:00:37;;;;;;;2.47;0.60;;;17.50;96.20;;;;;;5071917;28;20040;-77
2023/08/21 03:03:04;;;;;;;2.67;0.80;;;17.50;96.40;;;;;;5074748;28;20051;-81
2023/08/21 03:05:29;;;;;;;1.38;0.70;;;17.40;96.60;;;;;;5073834;28;20054;-78
2023/08/21 03:07:55;;;;;;;2.40;0.90;;;17.40;96.60;;;;;;5073721;28;20469;-79
2023/08/21 03:10:23;;;;;;;2.28;0.82;;;17.30;96.70;;;;;;5072764;28;20052;-80
2023/08/21 03:12:49;;;;;;;1.77;0.80;;;17.40;96.60;;;;;;5073189;28;20048;-79
2023/08/21 03:15:14;;;;;;;2.03;0.70;;;17.30;96.80;;;;;;5073894;28;20574;-79
2023/08/21 03:17:41;;;;;;;2.67;0.88;;;17.30;96.80;;;;;;5074299;28;20040;-79
2023/08/21 03:20:07;;;;;;;1.58;0.73;;;17.30;96.80;;;;;;5074036;28;20426;-79
2023/08/21 03:22:32;;;;;;;1.42;0.82;;;17.20;96.70;;;;;;5074302;28;20048;-79
2023/08/21 03:24:58;;;;;;;2.25;0.80;;;17.20;96.70;;;;;;5074185;28;20454;-79
2023/08/21 03:27:24;;;;;;;2.20;0.80;;;17.20;96.70;;;;;;5073733;28;20067;-79
2023/08/21 03:29:50;;;;;;;3.00;0.90;;;17.20;97.00;;;;;;5074659;28;20041;-79
2023/08/21 03:32:16;;;;;;;2.45;0.85;;;17.20;96.90;;;;;;5074061;28;20047;-79
2023/08/21 03:34:43;;;;;;;3.78;0.80;;;17.10;96.80;;;;;;5073754;28;20490;-78
2023/08/21 03:37:08;;;;;;;3.42;0.88;;;17.10;96.80;;;;;;5073546;28;20060;-79
2023/08/21 03:39:34;;;;;;;1.25;0.80;;;17.00;97.10;;;;;;5074190;28;20171;-79
2023/08/21 03:41:59;;;;;;;2.08;0.90;;;17.00;97.20;;;;;;5073698;28;20040;-79
2023/08/21 03:44:25;;;;;;;2.33;0.80;;;17.00;97.00;;;;;;5073406;28;20502;-79
2023/08/21 03:46:51;;;;;;;2.53;0.80;;;17.00;97.20;;;;;;5072693;28;20057;-79
2023/08/21 03:49:16;;;;;;;4.30;1.00;;;16.90;97.20;;;;;;5073418;28;20053;-79
2023/08/21 03:51:42;;;;;;;3.47;0.90;;;16.90;97.30;;;;;;5073237;28;20044;-79
2023/08/21 03:54:08;;;;;;;2.50;0.82;;;16.90;97.10;;;;;;5073935;28;20032;-79
2023/08/21 03:56:34;;;;;;;4.18;0.90;;;16.90;97.20;;;;;;5073303;28;20048;-79
2023/08/21 03:59:00;;;;;;;2.30;0.90;;;16.80;97.20;;;;;;5073776;28;20043;-79
2023/08/21 04:01:25;;;;;;;1.83;0.80;;;16.80;97.10;;;;;;5072975;28;20121;-79
2023/08/21 04:03:51;;;;;;;1.92;0.80;;;16.80;97.20;;;;;;5073328;28;20051;-79
2023/08/21 04:06:16;;;;;;;2.40;0.98;;;16.70;97.00;;;;;;5071626;28;20041;-79
2023/08/21 04:08:42;;;;;;;2.70;1.00;;;16.70;97.10;;;;;;5067916;28;20040;-79
2023/08/21 04:11:08;;;;;;;1.60;0.70;;;16.70;97.20;;;;;;5072910;28;20040;-79
2023/08/21 04:13:33;;;;;;;2.20;0.80;;;16.60;97.00;;;;;;5073275;28;20123;-79
2023/08/21 04:15:59;;;;;;;1.38;0.70;;;16.60;97.10;;;;;;5073165;28;20037;-79
2023/08/21 04:18:25;;;;;;;1.67;0.80;;;16.60;97.20;;;;;;5071799;28;20048;-79
2023/08/21 04:20:50;;;;;;;2.03;0.80;;;16.60;97.30;;;;;;5073072;28;20499;-79
2023/08/21 04:23:16;;;;;;;2.33;0.60;;;16.60;97.40;;;;;;5071262;28;20040;-79
2023/08/21 04:25:42;;;;;;;1.50;0.70;;;16.60;97.30;;;;;;5072682;28;20079;-79
2023/08/21 04:28:08;;;;;;;0.75;0.60;;;16.50;97.30;;;;;;5071137;28;20052;-79
2023/08/21 04:30:34;;;;;;;2.10;0.70;;;16.50;97.10;;;;;;5071397;28;20041;-79
2023/08/21 04:33:00;;;;;;;3.15;0.63;;;16.50;97.10;;;;;;5073266;28;20455;-79
2023/08/21 04:35:26;;;;;;;2.17;0.80;;;16.40;97.00;;;;;;5072834;28;20036;-79
2023/08/21 04:37:51;;;;;;;2.95;0.90;;;16.40;96.90;;;;;;5069421;28;20497;-79
2023/08/21 04:40:20;;;;;;;1.73;0.80;;;16.40;97.20;;;;;;5068142;28;20095;-79
2023/08/21 04:42:45;;;;;;;1.60;0.80;;;16.40;97.10;;;;;;5053279;28;20045;-79
2023/08/21 04:45:11;;;;;;;1.63;0.80;;;16.40;97.30;;;;;;5070908;28;20136;-79
2023/08/21 04:47:37;;;;;;;5.53;0.82;;;16.30;97.20;;;;;;5071881;28;20064;-79
2023/08/21 04:50:02;;;;;;;4.50;0.90;;;16.30;97.10;;;;;;5073274;28;20052;-79
2023/08/21 04:52:28;;;;;;;2.17;0.77;;;16.30;97.00;;;;;;5072872;28;20482;-79
2023/08/21 04:54:54;;;;;;;2.53;0.85;;;16.20;97.20;;;;;;5073047;28;20173;-79
2023/08/21 04:57:22;;;;;;;3.90;0.80;;;16.20;97.00;;;;;;5073005;28;20398;-80
2023/08/21 04:59:48;;;;;;;6.50;1.15;;;16.10;96.80;;;;;;5073215;28;20128;-79
2023/08/21 05:02:14;;;;;;;1.85;1.00;;;16.10;97.00;;;;;;5073190;28;20166;-80
2023/08/21 05:04:40;;;;;;;2.38;0.90;;;16.10;97.20;;;;;;5073093;28;20044;-79
2023/08/21 05:07:05;;;;;;;2.58;0.80;;;16.10;97.40;;;;;;5072623;28;20047;-79
2023/08/21 05:09:32;;;;;;;3.15;1.05;;;16.10;97.10;;;;;;5072924;28;20041;-79
2023/08/21 05:11:58;;;;;;;1.40;0.90;;;16.00;96.90;;;;;;5072914;28;20403;-79
2023/08/21 05:14:23;;;;;;;5.00;0.90;;;16.00;97.10;;;;;;5073142;28;20051;-79
2023/08/21 05:16:50;;;;;;;3.95;1.00;;;16.00;97.20;;;;;;5073117;28;20040;-79
2023/08/21 05:19:16;;;;;;;3.03;1.00;;;16.00;97.30;;;;;;5072927;28;20051;-79
2023/08/21 05:21:42;;;;;;;1.40;0.80;;;15.90;97.50;;;;;;5072375;28;20053;-79
2023/08/21 05:24:08;;;;;;;2.05;0.95;;;15.90;97.60;;;;;;5072690;28;20066;-79
2023/08/21 05:26:36;;;;;;;2.97;0.90;;;15.90;97.50;;;;;;5072986;28;20036;-79
2023/08/21 05:29:02;;;;;;;2.70;1.08;;;15.90;97.50;;;;;;5073580;28;20044;-79
2023/08/21 05:31:27;;;;;;;1.70;0.77;;;15.90;97.60;;;;;;5075574;28;20044;-79
2023/08/21 05:33:53;;;;;;;1.75;0.77;;;15.90;97.70;;;;;;5076549;28;20071;-79
2023/08/21 05:36:18;;;;;;;1.48;0.90;;;15.90;97.60;;;;;;5075999;28;20039;-79
2023/08/21 05:38:44;;;;;;;1.58;0.88;;;15.80;97.40;;;;;;5076390;28;20054;-79
2023/08/21 05:41:10;;;;;;;4.07;0.90;;;15.80;97.50;;;;;;5076690;28;20148;-79
2023/08/21 05:43:36;;;;;;;2.00;0.90;;;15.80;97.50;;;;;;5075592;28;20494;-79
2023/08/21 05:46:01;;;;;;;2.13;1.00;;;15.80;97.50;;;;;;5076303;28;20060;-79
2023/08/21 05:48:27;;;;;;;1.30;0.80;;;15.80;97.50;;;;;;5076306;28;20123;-79
2023/08/21 05:50:54;;;;;;;2.03;0.93;;;15.80;97.50;;;;;;5075843;28;20161;-79
2023/08/21 05:53:19;;;;;;;1.98;0.80;;;15.80;97.60;;;;;;5076100;28;20515;-79
2023/08/21 05:55:45;;;;;;;1.80;0.90;;;15.80;97.60;;;;;;5076099;28;20159;-79
2023/08/21 05:58:11;;;;;;;2.42;1.00;;;15.80;97.50;;;;;;5075880;28;20045;-79
2023/08/21 06:00:38;;;;;;;2.08;1.10;;;15.80;97.50;;;;;;5076174;28;20098;-79
2023/08/21 06:03:04;;;;;;;1.95;0.82;;;15.80;97.20;;;;;;5076113;28;20041;-79
2023/08/21 06:05:30;;;;;;;3.22;1.05;;;15.80;97.10;;;;;;5075062;28;20052;-78
2023/08/21 06:07:56;;;;;;;2.38;1.05;;;15.80;97.20;;;;;;5074684;28;20509;-79
2023/08/21 06:10:22;;;;;;;1.17;0.77;;;15.80;97.20;;;;;;5074957;28;20045;-79
2023/08/21 06:12:48;;;;;;;3.92;1.13;;;15.80;97.30;;;;;;5073558;28;20135;-78
2023/08/21 06:15:14;;;;;;;2.58;1.00;;;15.80;97.20;;;;;;5084209;28;20052;-79
2023/08/21 06:17:41;;;;;;;1.73;0.80;;;15.80;97.10;;;;;;5095685;28;20481;-79
2023/08/21 06:20:11;;;;;;;1.55;0.90;;;15.80;97.10;;;;;;5094599;28;20071;-79
2023/08/21 06:22:37;;;;;;;3.47;1.00;;;15.80;97.20;;;;;;5095538;28;20127;-79
2023/08/21 06:25:02;;;;;;;1.98;1.15;;;15.90;97.10;;;;;;5089530;28;20119;-78
2023/08/21 06:27:28;;;;;;;3.97;1.10;;;15.90;97.10;;;;;;5074674;28;20040;-79
2023/08/21 06:29:54;;;;;;;4.03;1.55;;;15.90;97.30;;;;;;5074557;28;20084;-79
2023/08/21 06:32:19;;;;;;;3.83;1.13;;;16.00;97.20;;;;;;5074887;28;20407;-79
2023/08/21 06:34:45;;;;;;;3.88;1.42;;;16.00;97.30;;;;;;5075083;28;20044;-79
2023/08/21 06:37:12;;;;;;;4.15;1.00;;;16.10;97.20;;;;;;5073583;28;20088;-79
2023/08/21 06:39:38;;;;;;;4.13;1.30;;;16.10;97.30;;;;;;5074870;28;20048;-79
2023/08/21 06:42:04;;;;;;;3.70;1.10;;;16.10;97.40;;;;;;5075073;28;20048;-79
2023/08/21 06:44:29;;;;;;;3.55;1.13;;;16.20;97.40;;;;;;5074653;28;20044;-79
2023/08/21 06:46:55;;;;;;;3.58;1.02;;;16.30;97.60;;;;;;5074880;28;20072;-79
2023/08/21 06:49:20;;;;;;;4.50;1.40;;;16.30;97.60;;;;;;5074108;28;20052;-79
2023/08/21 06:51:46;;;;;;;3.17;1.30;;;16.40;97.60;;;;;;5074542;28;20071;-79
2023/08/21 06:54:12;;;;;;;3.22;1.30;;;16.50;97.80;;;;;;5073612;28;20470;-79
2023/08/21 06:56:37;;;;;;;5.47;2.28;;;16.50;98.00;;;;;;5085786;28;20036;-79
2023/08/21 06:59:03;;;;;;;8.25;1.92;;;16.60;98.40;;;;;;5093948;28;20051;-79
2023/08/21 07:01:29;;;;;;;7.38;2.33;;;16.70;99.10;;;;;;5094951;28;20044;-79
2023/08/21 07:03:54;;;;;;;4.95;1.80;;;16.70;99.00;;;;;;5094919;28;20055;-79
2023/08/21 07:06:20;;;;;;;8.60;2.90;;;16.90;98.90;;;;;;5094543;28;20093;-79
2023/08/21 07:08:46;;;;;;;6.72;1.75;;;17.00;99.60;;;;;;5094745;28;20040;-79
2023/08/21 07:11:12;;;;;;;5.15;1.38;;;17.10;99.20;;;;;;5094870;28;20048;-79
2023/08/21 07:13:38;;;;;;;8.20;1.65;;;17.20;98.60;;;;;;5061081;28;20051;-78
2023/08/21 07:16:08;;;;;;;5.82;1.42;;;17.20;98.50;;;;;;5057621;28;20422;-79
2023/08/21 07:18:35;;;;;;;11.80;2.10;;;17.30;98.40;;;;;;5054390;28;20047;-79
2023/08/21 07:21:04;;;;;;;4.65;1.27;;;17.40;99.30;;;;;;5068339;28;20045;-79
2023/08/21 07:23:33;;;;;;;7.40;1.63;;;17.50;98.90;;;;;;5068488;28;20479;-79
2023/08/21 07:25:59;;;;;;;9.20;1.80;;;17.60;99.30;;;;;;5073972;28;20090;-79
2023/08/21 07:28:25;;;;;;;5.97;1.55;;;17.70;99.80;;;;;;5084604;28;20044;-79
2023/08/21 07:30:55;;;;;;;7.63;1.95;;;17.80;99.90;;;;;;5071228;28;20032;-79
2023/08/21 07:33:24;;;;;;;9.10;1.80;;;17.90;99.90;;;;;;5061655;28;20060;-79
2023/08/21 07:36:06;;;;;;;6.85;1.45;;;18.10;99.90;;;;;;5061135;28;20392;-77
2023/08/21 07:38:32;;;;;;;8.90;1.58;;;18.20;99.90;;;;;;5071907;28;20124;-79
2023/08/21 07:41:09;;;;;;;9.40;1.60;;;18.20;99.90;;;;;;5072623;28;20055;-79
2023/08/21 07:43:36;;;;;;;6.53;1.20;;;18.40;99.90;;;;;;5079414;28;20051;-79
2023/08/21 07:46:06;;;;;;;6.53;1.10;;;18.50;99.50;;;;;;5078739;28;20127;-78
2023/08/21 07:48:33;;;;;;;4.75;1.20;;;18.60;99.00;;;;;;5100019;28;20041;-79
2023/08/21 07:50:58;;;;;;;8.25;1.25;;;18.70;99.20;;;;;;5065822;28;20544;-79
2023/08/21 07:53:27;;;;;;;5.20;1.27;;;18.80;99.30;;;;;;5054450;28;20037;-79
2023/08/21 07:55:53;;;;;;;8.07;1.27;;;18.90;99.50;;;;;;5064026;28;20456;-79
2023/08/21 07:58:19;;;;;;;4.35;1.02;;;19.00;99.20;;;;;;5071777;28;20045;-79
2023/08/21 08:00:46;;;;;;;7.60;1.63;;;19.10;98.70;;;;;;5073278;28;20128;-79
2023/08/21 08:03:14;;;;;;;6.32;1.60;;;19.20;98.70;;;;;;5072347;28;20051;-79
2023/08/21 08:05:43;;;;;;;6.13;1.55;;;19.30;98.90;;;;;;5067112;28;20120;-79
2023/08/21 08:08:09;;;;;;;6.35;1.30;;;19.40;98.70;;;;;;5065962;28;20048;-79
2023/08/21 08:10:41;;;;;;;6.18;1.25;;;19.50;98.50;;;;;;5061068;28;20057;-79
2023/08/21 08:13:08;;;;;;;6.13;1.43;;;19.60;98.20;;;;;;5058543;28;20406;-79
2023/08/21 08:15:34;;;;;;;6.72;1.58;;;19.70;98.10;;;;;;5069793;28;20106;-79
2023/08/21 08:18:02;;;;;;;6.72;1.73;;;19.80;97.90;;;;;;5064860;28;20048;-79
2023/08/21 08:20:27;;;;;;;8.93;1.50;;;20.00;98.00;;;;;;5060150;28;20040;-79
2023/08/21 08:22:53;;;;;;;4.93;1.30;;;20.10;98.00;;;;;;5062511;28;20049;-79
2023/08/21 08:25:19;;;;;;;7.45;1.30;;;20.10;97.70;;;;;;5072389;28;20441;-79
2023/08/21 08:27:44;;;;;;;3.65;0.90;;;20.30;97.50;;;;;;5071397;28;20139;-79
2023/08/21 08:30:10;;;;;;;7.35;1.35;;;20.40;96.90;;;;;;5072528;28;20140;-79
2023/08/21 08:32:36;;;;;;;4.47;0.90;;;20.50;97.00;;;;;;5070895;28;20036;-79
2023/08/21 08:35:02;;;;;;;6.95;1.40;;;20.60;96.50;;;;;;5071243;28;20056;-79
2023/08/21 08:37:28;;;;;;;8.13;1.30;;;20.70;96.20;;;;;;5072642;28;20128;-79
2023/08/21 08:39:53;;;;;;;6.80;1.30;;;20.80;95.60;;;;;;5072236;28;20051;-79
2023/08/21 08:42:19;;;;;;;6.10;1.15;;;20.80;95.60;;;;;;5072864;28;20124;-78
2023/08/21 08:44:45;;;;;;;5.28;1.23;;;20.90;95.10;;;;;;5072701;28;20410;-78
2023/08/21 08:47:11;;;;;;;6.35;1.30;;;21.00;95.10;;;;;;5072973;28;20044;-79
2023/08/21 08:49:40;;;;;;;8.88;1.60;;;21.10;95.00;;;;;;5073005;28;20110;-78
2023/08/21 08:52:06;;;;;;;3.75;1.20;;;21.20;94.90;;;;;;5071793;28;20082;-79
2023/08/21 08:54:33;;;;;;;5.07;1.00;;;21.30;95.00;;;;;;5072330;28;20044;-78
2023/08/21 08:56:58;;;;;;;5.07;1.05;;;21.40;95.00;;;;;;5071857;28;20055;-79
2023/08/21 08:59:25;;;;;;;7.32;1.13;;;21.50;94.80;;;;;;5072518;28;20036;-79
2023/08/21 09:01:51;;;;;;;6.28;1.40;;;21.60;94.50;;;;;;5071914;28;20049;-79
2023/08/21 09:04:17;;;;;;;7.00;1.40;;;21.70;94.10;;;;;;5075481;28;20047;-80
2023/08/21 09:06:42;;;;;;;8.80;1.48;;;21.70;93.50;;;;;;5059077;28;20462;-80
2023/08/21 09:09:12;;;;;;;5.43;1.00;;;21.80;93.40;;;;;;5056225;28;20426;-80
2023/08/21 09:11:43;;;;;;;5.38;1.20;;;21.90;93.70;;;;;;5055787;28;20398;-80
2023/08/21 09:14:10;;;;;;;4.80;1.20;;;22.00;93.60;;;;;;5063025;28;20494;-80
2023/08/21 09:16:35;;;;;;;5.43;1.00;;;22.10;93.30;;;;;;5070788;28;20052;-81
2023/08/21 09:19:01;;;;;;;5.93;1.27;;;22.20;92.80;;;;;;5074757;28;20048;-80
2023/08/21 09:21:28;;;;;;;5.90;1.15;;;22.20;92.50;;;;;;5076191;28;20494;-80
2023/08/21 09:24:04;;;;;;;4.88;1.00;;;22.30;92.10;;;;;;5058483;28;20045;-81
2023/08/21 09:26:34;;;;;;;5.32;1.02;;;22.40;91.80;;;;;;5067084;28;20052;-80
2023/08/21 09:29:04;;;;;;;4.10;0.75;;;22.50;92.40;;;;;;5073325;28;20094;-81
2023/08/21 09:31:32;;;;;;;3.63;0.85;;;22.50;92.70;;;;;;5066016;28;20520;-80
2023/08/21 09:34:05;;;;;;;5.50;1.30;;;22.60;92.60;;;;;;5073387;28;20044;-80
2023/08/21 09:36:35;;;;;;;5.68;1.10;;;22.70;92.60;;;;;;5072085;28;20053;-80
2023/08/21 09:39:06;;;;;;;7.13;1.30;;;22.80;92.20;;;;;;5069762;28;20075;-80
2023/08/21 09:41:31;;;;;;;5.82;0.90;;;22.90;92.10;;;;;;5056290;28;20079;-80
2023/08/21 09:44:03;;;;;;;4.72;1.00;;;23.00;92.20;;;;;;5055933;28;20542;-80
2023/08/21 09:46:33;;;;;;;6.15;1.40;;;23.00;91.20;;;;;;5055949;28;20057;-81
2023/08/21 09:49:00;;;;;;;8.93;1.20;;;23.10;90.90;;;;;;5063264;28;20128;-80
2023/08/21 09:51:30;;;;;;;6.60;1.10;;;23.20;90.70;;;;;;5074473;28;20137;-81
2023/08/21 09:53:59;;;;;;;4.50;1.20;;;23.30;89.60;;;;;;5076149;28;20063;-80
2023/08/21 09:56:28;;;;;;;7.20;1.13;;;23.30;89.00;;;;;;5075938;28;20045;-80
2023/08/21 09:58:54;;;;;;;3.90;0.80;;;23.40;87.70;;;;;;5074691;28;20047;-80
2023/08/21 10:01:21;;;;;;;6.70;1.25;;;23.50;90.60;;;;;;5075843;28;20041;-80
2023/08/21 10:03:47;;;;;;;5.88;0.88;;;23.60;90.20;;;;;;5075733;28;20459;-81
2023/08/21 10:06:17;;;;;;;3.97;1.27;;;23.60;90.50;;;;;;5075992;28;20048;-81
2023/08/21 10:08:50;;;;;;;5.18;0.93;;;23.70;89.00;;;;;;5075872;28;20051;-80
2023/08/21 10:11:20;;;;;;;4.78;1.10;;;23.80;90.70;;;;;;5074752;28;20121;-81
2023/08/21 10:13:47;;;;;;;5.07;1.00;;;23.90;91.10;;;;;;5075482;28;20048;-80
2023/08/21 10:16:16;;;;;;;3.55;0.80;;;24.00;91.50;;;;;;5075037;28;20040;-80
2023/08/21 10:18:45;;;;;;;5.82;1.20;;;24.10;91.50;;;;;;5075486;28;20484;-80
2023/08/21 10:21:21;;;;;;;4.82;1.15;;;24.10;89.60;;;;;;5075589;28;20052;-81
2023/08/21 10:23:54;;;;;;;4.18;1.13;;;24.20;89.80;;;;;;5075581;28;20087;-80
2023/08/21 10:26:26;;;;;;;5.38;1.38;;;24.30;90.60;;;;;;5075365;28;20040;-80
2023/08/21 10:29:01;;;;;;;6.55;1.30;;;24.40;90.30;;;;;;5075549;28;20080;-81
2023/08/21 10:31:34;;;;;;;6.80;1.40;;;24.40;88.90;;;;;;5075327;28;20087;-81
2023/08/21 10:34:11;;;;;;;5.95;1.40;;;24.50;86.20;;;;;;5075130;28;20517;-80
2023/08/21 10:36:43;;;;;;;6.88;1.20;;;24.60;85.90;;;;;;5075224;28;20036;-80
2023/08/21 10:39:23;;;;;;;6.93;1.33;;;24.70;85.60;;;;;;5074209;28;20105;-80
2023/08/21 10:42:03;;;;;;;4.43;1.00;;;24.70;85.20;;;;;;5075120;28;20512;-80
2023/08/21 10:44:55;;;;;;;4.85;1.23;;;24.80;83.50;;;;;;5075207;28;20041;-81
2023/08/21 10:47:27;;;;;;;2.92;0.88;;;24.80;87.20;;;;;;5075102;28;20096;-80
2023/08/21 10:49:57;;;;;;;5.57;1.25;;;24.90;86.80;;;;;;5075217;28;20050;-80
2023/08/21 10:52:39;;;;;;;5.05;1.15;;;24.90;88.00;;;;;;5075077;28;20037;-80
2023/08/21 10:55:05;;;;;;;5.97;1.50;;;25.00;85.20;;;;;;5074935;28;20450;-80
2023/08/21 10:57:32;;;;;;;3.95;1.40;;;25.10;85.00;;;;;;5074758;28;20090;-80
2023/08/21 11:00:11;;;;;;;4.22;1.00;;;25.20;86.30;;;;;;5074599;28;20045;-80
2023/08/21 11:02:39;;;;;;;3.75;0.98;;;25.20;90.00;;;;;;5074928;28;20048;-80
2023/08/21 11:05:09;;;;;;;4.20;1.13;;;25.30;87.70;;;;;;5074751;28;20052;-80
2023/08/21 11:07:48;;;;;;;5.97;1.30;;;25.40;89.60;;;;;;5074540;28;20041;-81
2023/08/21 11:10:33;;;;;;;6.13;1.48;;;25.40;88.70;;;;;;5074531;28;20052;-80
2023/08/21 11:13:02;;;;;;;5.32;1.30;;;25.50;85.70;;;;;;5073562;28;20118;-81
2023/08/21 11:15:29;;;;;;;6.07;1.48;;;25.60;84.80;;;;;;5074534;28;20045;-81
2023/08/21 11:17:56;;;;;;;5.18;1.20;;;25.60;82.30;;;;;;5073661;28;20041;-81
2023/08/21 11:20:33;;;;;;;5.10;1.33;;;25.70;83.60;;;;;;5074372;28;20387;-81
2023/08/21 11:23:06;;;;;;;3.60;1.20;;;25.80;85.90;;;;;;5073973;28;20154;-80
2023/08/21 11:25:33;;;;;;;6.82;1.48;;;25.80;89.50;;;;;;5074379;28;20047;-82
2023/08/21 11:27:59;;;;;;;2.60;0.95;;;25.90;87.00;;;;;;5073204;28;20044;-81
2023/08/21 11:30:25;;;;;;;3.78;1.02;;;26.00;90.00;;;;;;5074091;28;20045;-81
2023/08/21 11:33:11;;;;;;;5.78;1.50;;;26.00;89.10;;;;;;5073561;28;20047;-81
2023/08/21 11:35:38;;;;;;;5.88;1.40;;;26.10;90.00;;;;;;5073347;28;20044;-81
2023/08/21 11:38:04;;;;;;;5.18;1.20;;;26.20;86.00;;;;;;5073044;28;20044;-81
2023/08/21 11:40:30;;;;;;;3.55;1.08;;;26.30;88.50;;;;;;5072701;28;20041;-81
2023/08/21 11:43:06;;;;;;;4.03;1.20;;;26.40;90.50;;;;;;5049165;28;20116;-81
2023/08/21 11:45:32;;;;;;;5.72;1.20;;;26.40;91.30;;;;;;5053494;28;20079;-81
2023/08/21 11:47:58;;;;;;;4.00;1.00;;;26.50;90.00;;;;;;5053880;28;20053;-81
2023/08/21 11:50:27;;;;;;;5.97;1.20;;;26.50;90.40;;;;;;5062022;28;20504;-80
2023/08/21 11:52:55;;;;;;;5.10;1.30;;;26.50;86.60;;;;;;5055329;28;20098;-81
2023/08/21 11:55:24;;;;;;;6.20;1.48;;;26.60;87.40;;;;;;5064156;28;20135;-81
2023/08/21 11:57:52;;;;;;;3.30;1.00;;;26.60;83.40;;;;;;5069940;28;20049;-81
2023/08/21 12:00:19;;;;;;;4.93;1.13;;;26.60;87.60;;;;;;5069754;28;20129;-81
2023/08/21 12:02:58;;;;;;;4.15;1.20;;;26.70;90.30;;;;;;5063143;28;20391;-81
2023/08/21 12:05:23;;;;;;;4.50;1.30;;;26.70;85.30;;;;;;5068229;28;20098;-81
2023/08/21 12:07:52;;;;;;;4.28;1.00;;;26.80;86.10;;;;;;5058079;28;20052;-81
2023/08/21 12:10:29;;;;;;;4.03;0.90;;;26.90;90.00;;;;;;5060393;28;20557;-81
2023/08/21 12:12:56;;;;;;;4.38;1.10;;;26.90;88.00;;;;;;5058867;28;20077;-81
2023/08/21 12:15:22;;;;;;;4.07;1.00;;;26.90;85.30;;;;;;5071075;28;20049;-81
2023/08/21 12:17:47;;;;;;;3.97;1.00;;;26.90;84.60;;;;;;5060207;28;20553;-81
2023/08/21 12:20:13;;;;;;;4.80;1.20;;;27.00;89.20;;;;;;5071229;28;20120;-81
2023/08/21 12:22:40;;;;;;;4.03;0.98;;;27.00;90.40;;;;;;5053020;28;20048;-81
2023/08/21 12:25:07;;;;;;;5.35;1.30;;;27.10;90.90;;;;;;5066908;28;20049;-81
2023/08/21 12:27:33;;;;;;;3.70;1.02;;;27.10;84.70;;;;;;5062338;28;20046;-81
2023/08/21 12:29:58;;;;;;;6.95;1.50;;;27.10;89.30;;;;;;5058917;28;20441;-81
2023/08/21 12:32:24;;;;;;;5.15;1.05;;;27.10;84.30;;;;;;5070861;28;20036;-81
2023/08/21 12:34:50;;;;;;;4.43;1.20;;;27.10;88.30;;;;;;5072020;28;20123;-80
2023/08/21 12:37:15;;;;;;;5.90;1.30;;;27.20;89.60;;;;;;5072318;28;20048;-81
2023/08/21 12:39:41;;;;;;;5.97;1.30;;;27.10;83.20;;;;;;5072016;28;20478;-81
2023/08/21 12:42:07;;;;;;;7.85;1.48;;;27.20;84.60;;;;;;5073255;28;20036;-82
2023/08/21 12:44:33;;;;;;;6.80;1.30;;;27.20;79.70;;;;;;5071699;28;20556;-81
2023/08/21 12:46:59;;;;;;;4.88;1.10;;;27.20;79.60;;;;;;5088080;28;20052;-81
2023/08/21 12:49:26;;;;;;;7.97;1.30;;;27.20;83.60;;;;;;5072806;28;20454;-81